Time;durP1;ratioP1;P1;durP2;ratioP2;P2;SDS_P1;SDS_P2;PMS_P1;PMS_P2;Temp;Humidity;BMP_temperature;BMP_pressure;BME280_temperature;BME280_humidity;BME280_pressure;Samples;Min_cycle;Max_cycle;Signal;HPM_P1;HPM_P2
2024/01/21 00:01:23;;;;;;;22.13;14.20;;;0.00;79.20;;;;;;5038713;28;20029;-75
2024/01/21 00:03:49;;;;;;;23.05;14.60;;;0.00;79.20;;;;;;5033438;28;20045;-75
2024/01/21 00:06:15;;;;;;;21.98;13.93;;;0.00;79.20;;;;;;5033393;28;20071;-75
2024/01/21 00:08:44;;;;;;;21.20;13.07;;;0.00;79.50;;;;;;5033825;28;20024;-82
2024/01/21 00:11:09;;;;;;;22.38;13.27;;;0.00;79.70;;;;;;5044536;28;20029;-75
2024/01/21 00:13:35;;;;;;;23.63;12.77;;;0.00;79.90;;;;;;5038087;28;20082;-77
2024/01/21 00:16:01;;;;;;;22.25;11.82;;;0.00;79.80;;;;;;5040421;28;20033;-79
2024/01/21 00:18:27;;;;;;;23.35;12.75;;;0.00;80.00;;;;;;5029829;28;20025;-76
2024/01/21 00:20:52;;;;;;;21.85;12.45;;;0.00;79.80;;;;;;5034862;28;20033;-76
2024/01/21 00:23:18;;;;;;;22.25;13.10;;;0.00;80.00;;;;;;5032818;28;20040;-75
2024/01/21 00:25:44;;;;;;;21.30;12.50;;;0.00;80.00;;;;;;5035884;28;20073;-76
2024/01/21 00:28:09;;;;;;;19.33;12.13;;;0.00;79.90;;;;;;5037146;28;20090;-75
2024/01/21 00:30:35;;;;;;;20.17;12.57;;;0.10;79.60;;;;;;5036082;28;20032;-81
2024/01/21 00:33:00;;;;;;;16.83;10.93;;;0.20;79.50;;;;;;5042384;28;20021;-74
2024/01/21 00:35:26;;;;;;;22.17;12.13;;;0.20;79.40;;;;;;5038493;28;20029;-79
2024/01/21 00:37:52;;;;;;;21.48;11.52;;;0.20;79.40;;;;;;5037874;28;20567;-74
2024/01/21 00:40:18;;;;;;;20.10;11.25;;;0.30;79.30;;;;;;5015084;28;20799;-74
2024/01/21 00:42:44;;;;;;;21.02;12.27;;;0.30;79.20;;;;;;5035584;28;20036;-74
2024/01/21 00:45:09;;;;;;;22.08;12.35;;;0.30;79.10;;;;;;5034895;28;20441;-74
2024/01/21 00:47:35;;;;;;;21.20;11.55;;;0.30;78.90;;;;;;5041050;28;20029;-74
2024/01/21 00:50:01;;;;;;;24.52;12.73;;;0.30;79.10;;;;;;5036438;28;20536;-77
2024/01/21 00:52:26;;;;;;;21.42;12.48;;;0.30;78.90;;;;;;5040719;28;20028;-75
2024/01/21 00:54:53;;;;;;;26.90;14.30;;;0.30;79.00;;;;;;5033980;28;20131;-75
2024/01/21 00:57:19;;;;;;;24.10;12.85;;;0.40;79.10;;;;;;5037163;28;20024;-75
2024/01/21 00:59:45;;;;;;;20.42;12.82;;;0.40;78.70;;;;;;5034603;28;20561;-74
2024/01/21 01:02:10;;;;;;;22.50;11.75;;;0.50;78.80;;;;;;5037992;28;20112;-75
2024/01/21 01:04:36;;;;;;;18.85;11.77;;;0.50;78.70;;;;;;5030463;28;20042;-75
2024/01/21 01:07:02;;;;;;;20.27;12.18;;;0.50;78.60;;;;;;5033255;28;20664;-79
2024/01/21 01:09:27;;;;;;;17.33;11.43;;;0.60;78.60;;;;;;5035834;28;20295;-76
2024/01/21 01:11:53;;;;;;;20.42;11.05;;;0.60;78.70;;;;;;5038380;28;20148;-76
2024/01/21 01:14:19;;;;;;;17.65;10.55;;;0.60;78.40;;;;;;5039682;28;20032;-81
2024/01/21 01:16:44;;;;;;;19.75;11.70;;;0.60;78.40;;;;;;5036882;28;20020;-77
2024/01/21 01:19:10;;;;;;;16.38;10.50;;;0.70;78.20;;;;;;5037207;28;20116;-74
2024/01/21 01:21:36;;;;;;;17.33;10.95;;;0.70;78.00;;;;;;5037341;28;20060;-75
2024/01/21 01:24:02;;;;;;;16.52;10.65;;;0.70;77.90;;;;;;5037108;28;20060;-75
2024/01/21 01:26:27;;;;;;;16.52;10.48;;;0.80;77.80;;;;;;5033608;28;20029;-82
2024/01/21 01:28:53;;;;;;;16.67;10.85;;;0.90;77.50;;;;;;5033176;28;20025;-75
2024/01/21 01:31:19;;;;;;;16.30;10.38;;;0.90;77.40;;;;;;5031808;28;20021;-76
2024/01/21 01:33:46;;;;;;;16.65;10.27;;;0.80;77.50;;;;;;5030972;28;20056;-79
2024/01/21 01:36:11;;;;;;;21.05;11.40;;;0.90;77.50;;;;;;5035297;28;21285;-76
2024/01/21 01:38:37;;;;;;;16.98;10.68;;;0.80;77.50;;;;;;5032408;28;20143;-76
2024/01/21 01:41:04;;;;;;;19.40;11.38;;;0.80;77.70;;;;;;5035048;28;20141;-75
2024/01/21 01:43:29;;;;;;;18.75;11.98;;;0.80;77.50;;;;;;5030481;28;20021;-77
2024/01/21 01:45:56;;;;;;;18.38;11.32;;;0.80;77.50;;;;;;5034418;28;20048;-77
2024/01/21 01:48:23;;;;;;;16.98;10.93;;;0.80;77.50;;;;;;5030707;28;20074;-77
2024/01/21 01:50:49;;;;;;;20.30;11.77;;;0.80;77.50;;;;;;5044511;28;20033;-82
2024/01/21 01:53:16;;;;;;;16.00;10.52;;;0.80;77.10;;;;;;5037479;28;20750;-81
2024/01/21 01:55:43;;;;;;;19.33;11.55;;;0.80;77.00;;;;;;5044448;28;20456;-76
2024/01/21 01:58:09;;;;;;;29.48;16.85;;;0.80;77.10;;;;;;5044958;28;20021;-78
2024/01/21 02:00:35;;;;;;;24.73;14.27;;;0.90;76.80;;;;;;5041218;28;20029;-76
2024/01/21 02:03:01;;;;;;;21.20;12.77;;;0.90;76.50;;;;;;5046404;28;20166;-75
2024/01/21 02:05:26;;;;;;;17.05;10.35;;;0.90;76.20;;;;;;5041294;28;20061;-75
2024/01/21 02:07:52;;;;;;;17.85;10.75;;;0.90;76.30;;;;;;5042109;28;20785;-75
2024/01/21 02:10:18;;;;;;;20.05;12.48;;;1.00;76.00;;;;;;5044038;28;20025;-82
2024/01/21 02:12:44;;;;;;;16.27;10.68;;;0.90;75.90;;;;;;5044761;28;20099;-76
2024/01/21 02:15:12;;;;;;;13.85;9.35;;;1.00;75.80;;;;;;5034781;28;20026;-76
2024/01/21 02:17:38;;;;;;;15.88;9.95;;;1.10;75.60;;;;;;5046234;28;20559;-75
2024/01/21 02:20:04;;;;;;;17.52;10.05;;;1.10;75.20;;;;;;5041161;28;20029;-75
2024/01/21 02:22:32;;;;;;;16.02;10.45;;;1.00;75.50;;;;;;5035538;28;20107;-76
2024/01/21 02:24:57;;;;;;;15.23;10.02;;;1.00;75.40;;;;;;5033810;28;20037;-76
2024/01/21 02:27:24;;;;;;;15.13;9.70;;;1.10;75.20;;;;;;5034136;28;20985;-78
2024/01/21 02:29:49;;;;;;;16.23;9.45;;;1.10;75.20;;;;;;5039130;28;20532;-81
2024/01/21 02:32:15;;;;;;;14.23;9.68;;;1.10;75.00;;;;;;5042340;28;20029;-80
2024/01/21 02:34:41;;;;;;;15.18;9.32;;;1.10;74.70;;;;;;5040705;28;20060;-76
2024/01/21 02:37:06;;;;;;;13.23;9.02;;;1.20;74.70;;;;;;5039210;28;20029;-76
2024/01/21 02:39:32;;;;;;;17.05;9.32;;;1.20;74.90;;;;;;5040932;28;20060;-82
2024/01/21 02:41:57;;;;;;;16.20;9.40;;;1.20;74.70;;;;;;5047481;28;20029;-78
2024/01/21 02:44:23;;;;;;;13.43;9.02;;;1.20;74.80;;;;;;5041881;28;20064;-78
2024/01/21 02:46:49;;;;;;;15.63;9.57;;;1.10;74.90;;;;;;5046903;28;20076;-76
2024/01/21 02:49:16;;;;;;;15.23;9.02;;;1.30;74.80;;;;;;5049290;28;20043;-77
2024/01/21 02:51:42;;;;;;;14.05;9.75;;;1.20;75.00;;;;;;5044526;28;20045;-79
2024/01/21 02:54:07;;;;;;;15.43;10.20;;;1.20;74.90;;;;;;5047333;28;20030;-76
2024/01/21 02:56:33;;;;;;;15.05;9.32;;;1.20;75.10;;;;;;5045657;28;20021;-73
2024/01/21 02:58:59;;;;;;;14.50;9.55;;;1.20;75.00;;;;;;5039290;28;20150;-76
2024/01/21 03:01:24;;;;;;;14.30;9.32;;;1.30;75.20;;;;;;5038332;28;20049;-75
2024/01/21 03:03:50;;;;;;;15.05;9.60;;;1.30;75.50;;;;;;5043284;28;20024;-75
2024/01/21 03:06:17;;;;;;;15.15;9.27;;;1.30;75.40;;;;;;5037705;28;20037;-77
2024/01/21 03:08:43;;;;;;;15.68;9.80;;;1.30;75.30;;;;;;5040725;28;20473;-78
2024/01/21 03:11:09;;;;;;;15.77;9.60;;;1.30;75.40;;;;;;5039266;28;20105;-75
2024/01/21 03:13:34;;;;;;;16.50;10.02;;;1.30;75.50;;;;;;5034038;28;20560;-74
2024/01/21 03:16:01;;;;;;;14.05;9.20;;;1.30;75.80;;;;;;5037699;28;20028;-76
2024/01/21 03:18:27;;;;;;;14.73;9.80;;;1.30;75.90;;;;;;5034228;28;20500;-75
2024/01/21 03:20:52;;;;;;;13.88;9.80;;;1.30;76.00;;;;;;5034565;28;20037;-74
2024/01/21 03:23:18;;;;;;;17.27;9.95;;;1.20;76.20;;;;;;5043556;28;20028;-75
2024/01/21 03:25:45;;;;;;;17.85;10.27;;;1.20;76.30;;;;;;5037552;28;20043;-78
2024/01/21 03:28:10;;;;;;;16.85;10.38;;;1.20;76.20;;;;;;5036917;28;20028;-75
2024/01/21 03:30:37;;;;;;;17.65;10.57;;;1.20;76.40;;;;;;5039303;28;20041;-79
2024/01/21 03:33:03;;;;;;;16.17;9.70;;;1.20;76.60;;;;;;5037692;28;20110;-75
2024/01/21 03:35:28;;;;;;;18.15;10.57;;;1.20;76.80;;;;;;5050637;28;20068;-75
2024/01/21 03:37:55;;;;;;;14.68;9.60;;;1.20;76.90;;;;;;5037442;28;20064;-75
2024/01/21 03:40:21;;;;;;;15.40;10.35;;;1.20;77.00;;;;;;5037093;28;20040;-76
2024/01/21 03:42:47;;;;;;;17.13;10.68;;;1.20;77.20;;;;;;5034968;28;20021;-76
2024/01/21 03:45:13;;;;;;;17.23;10.70;;;1.20;77.20;;;;;;5033052;28;20041;-76
2024/01/21 03:47:39;;;;;;;17.52;11.25;;;1.10;77.20;;;;;;5033929;28;20021;-81
2024/01/21 03:50:05;;;;;;;16.98;10.18;;;1.10;77.40;;;;;;5040065;28;20025;-77
2024/01/21 03:52:31;;;;;;;18.42;10.57;;;1.10;77.50;;;;;;5038141;28;20025;-76
2024/01/21 03:54:57;;;;;;;17.75;10.13;;;1.10;77.80;;;;;;5032284;28;20030;-75
2024/01/21 03:57:23;;;;;;;15.88;10.40;;;1.10;77.80;;;;;;5031940;28;20457;-76
2024/01/21 03:59:48;;;;;;;17.33;11.73;;;1.10;77.70;;;;;;5035726;28;20033;-77
2024/01/21 04:02:14;;;;;;;18.52;11.45;;;1.10;77.90;;;;;;5034236;28;20021;-75
2024/01/21 04:04:40;;;;;;;17.83;10.65;;;1.10;78.10;;;;;;5033595;28;20541;-79
2024/01/21 04:07:05;;;;;;;17.45;11.25;;;1.10;78.20;;;;;;5034843;28;20017;-76
2024/01/21 04:09:31;;;;;;;17.88;11.15;;;1.10;78.30;;;;;;5033803;28;20120;-75
2024/01/21 04:11:57;;;;;;;17.13;11.43;;;1.10;78.40;;;;;;5035166;28;20027;-75
2024/01/21 04:14:23;;;;;;;16.35;10.60;;;1.00;78.60;;;;;;5051736;28;20068;-75
2024/01/21 04:16:49;;;;;;;17.42;11.05;;;1.10;78.50;;;;;;5045233;28;20120;-75
2024/01/21 04:19:18;;;;;;;18.67;10.68;;;1.10;78.60;;;;;;5035040;28;20029;-75
2024/01/21 04:21:43;;;;;;;17.58;11.70;;;1.10;78.70;;;;;;5043389;28;20072;-76
2024/01/21 04:24:09;;;;;;;19.05;11.65;;;1.00;78.80;;;;;;5036088;28;20423;-75
2024/01/21 04:26:35;;;;;;;18.42;11.57;;;1.00;79.10;;;;;;5042527;28;20035;-75
2024/01/21 04:29:01;;;;;;;16.25;11.25;;;1.00;79.20;;;;;;5038636;28;20026;-76
2024/01/21 04:31:27;;;;;;;17.02;10.57;;;1.00;79.20;;;;;;5042468;28;20090;-76
2024/01/21 04:33:52;;;;;;;17.30;11.30;;;1.10;79.10;;;;;;5034499;28;20073;-76
2024/01/21 04:36:19;;;;;;;18.25;12.13;;;1.00;79.30;;;;;;5031802;28;20116;-75
2024/01/21 04:38:46;;;;;;;19.08;12.00;;;1.00;79.30;;;;;;5031001;28;20029;-75
2024/01/21 04:41:13;;;;;;;19.35;11.40;;;1.00;79.40;;;;;;5043389;28;20016;-76
2024/01/21 04:43:39;;;;;;;15.77;10.68;;;1.00;79.30;;;;;;5040177;28;20094;-77
2024/01/21 04:46:06;;;;;;;18.40;11.90;;;1.00;79.50;;;;;;5035819;28;20112;-75
2024/01/21 04:48:32;;;;;;;19.20;11.75;;;1.00;79.60;;;;;;5036139;28;20028;-75
2024/01/21 04:50:58;;;;;;;17.65;11.05;;;0.90;79.90;;;;;;5034935;28;20472;-75
2024/01/21 04:53:24;;;;;;;16.75;11.43;;;0.90;79.90;;;;;;5045522;28;20031;-76
2024/01/21 04:55:50;;;;;;;19.67;11.60;;;1.00;79.80;;;;;;5032638;28;20037;-75
2024/01/21 04:58:16;;;;;;;19.25;11.85;;;1.00;79.80;;;;;;5040869;28;20024;-75
2024/01/21 05:00:42;;;;;;;15.93;10.85;;;1.00;79.70;;;;;;5041127;28;20029;-75
2024/01/21 05:03:08;;;;;;;16.85;11.25;;;1.00;79.70;;;;;;5037378;28;20354;-76
2024/01/21 05:05:34;;;;;;;16.83;11.38;;;1.10;79.80;;;;;;5030995;28;20355;-75
2024/01/21 05:08:00;;;;;;;19.30;11.55;;;1.10;79.60;;;;;;5035818;28;20478;-76
2024/01/21 05:10:26;;;;;;;17.00;11.50;;;1.00;79.70;;;;;;5037455;28;20105;-75
2024/01/21 05:12:52;;;;;;;18.95;11.48;;;1.10;79.80;;;;;;5036203;28;20030;-76
2024/01/21 05:15:18;;;;;;;17.75;11.18;;;1.10;79.80;;;;;;5035529;28;20036;-76
2024/01/21 05:17:43;;;;;;;19.60;12.35;;;1.10;79.80;;;;;;5038603;28;20028;-76
2024/01/21 05:20:09;;;;;;;16.48;10.88;;;1.10;79.90;;;;;;5035307;28;20040;-75
2024/01/21 05:22:35;;;;;;;19.88;12.35;;;1.10;80.00;;;;;;5032266;28;20513;-75
2024/01/21 05:25:03;;;;;;;18.27;11.27;;;1.10;79.80;;;;;;5036536;28;20126;-75
2024/01/21 05:27:29;;;;;;;17.58;11.82;;;1.10;79.80;;;;;;5040059;28;20024;-75
2024/01/21 05:29:55;;;;;;;16.33;11.10;;;1.10;79.70;;;;;;5033519;28;20037;-76
2024/01/21 05:32:20;;;;;;;17.15;11.07;;;1.10;79.50;;;;;;5031098;28;20025;-74
2024/01/21 05:34:46;;;;;;;16.98;11.65;;;1.10;79.50;;;;;;5034684;28;20524;-76
2024/01/21 05:37:12;;;;;;;17.98;11.40;;;1.10;79.60;;;;;;5049714;28;20017;-75
2024/01/21 05:39:37;;;;;;;18.00;11.02;;;1.10;79.50;;;;;;5035274;28;20434;-76
2024/01/21 05:42:05;;;;;;;18.52;11.73;;;1.20;79.60;;;;;;5035771;28;20015;-76
2024/01/21 05:44:31;;;;;;;16.52;11.10;;;1.20;79.70;;;;;;5032894;28;20370;-76
2024/01/21 05:46:57;;;;;;;16.25;10.25;;;1.10;79.90;;;;;;5033875;28;20067;-75
2024/01/21 05:49:23;;;;;;;17.40;11.48;;;1.10;79.70;;;;;;5023935;28;20040;-75
2024/01/21 05:51:50;;;;;;;19.38;11.15;;;1.20;79.90;;;;;;5033604;28;20024;-75
2024/01/21 05:54:16;;;;;;;19.20;11.38;;;1.20;79.80;;;;;;5043206;28;20056;-75
2024/01/21 05:56:41;;;;;;;16.45;10.32;;;1.20;79.70;;;;;;5035569;28;20017;-74
2024/01/21 05:59:07;;;;;;;19.30;11.15;;;1.30;79.80;;;;;;5032094;28;20397;-76
2024/01/21 06:01:33;;;;;;;16.85;11.40;;;1.30;79.80;;;;;;5048368;28;20366;-74
2024/01/21 06:03:58;;;;;;;18.52;11.70;;;1.30;79.90;;;;;;5039250;28;20102;-76
2024/01/21 06:06:24;;;;;;;17.67;12.05;;;1.30;80.00;;;;;;5043643;28;20029;-75
2024/01/21 06:08:49;;;;;;;18.50;11.95;;;1.30;80.10;;;;;;5031235;28;20065;-75
2024/01/21 06:11:15;;;;;;;19.48;11.75;;;1.30;80.20;;;;;;5034806;28;20448;-75
2024/01/21 06:13:40;;;;;;;18.52;11.65;;;1.30;80.20;;;;;;5032080;28;20013;-76
2024/01/21 06:16:06;;;;;;;17.92;11.40;;;1.30;80.30;;;;;;5044223;28;20029;-76
2024/01/21 06:18:32;;;;;;;18.08;11.07;;;1.30;80.40;;;;;;5034345;28;20389;-76
2024/01/21 06:20:57;;;;;;;17.70;11.35;;;1.40;80.30;;;;;;5031020;28;20021;-75
2024/01/21 06:23:23;;;;;;;17.98;11.80;;;1.40;80.50;;;;;;5030590;28;20017;-75
2024/01/21 06:25:49;;;;;;;18.10;11.05;;;1.40;80.50;;;;;;5035659;28;20424;-75
2024/01/21 06:28:16;;;;;;;17.35;11.48;;;1.40;80.70;;;;;;5037599;28;20021;-75
2024/01/21 06:30:42;;;;;;;15.35;10.35;;;1.50;80.80;;;;;;5030998;28;20154;-81
2024/01/21 06:33:07;;;;;;;19.67;10.95;;;1.50;81.00;;;;;;5025615;28;20096;-75
2024/01/21 06:35:33;;;;;;;16.50;10.80;;;1.60;81.00;;;;;;5027691;28;20441;-75
2024/01/21 06:38:00;;;;;;;17.45;11.60;;;1.60;81.00;;;;;;5044096;28;20045;-75
2024/01/21 06:40:26;;;;;;;18.20;11.48;;;1.60;80.90;;;;;;5050227;28;20029;-75
2024/01/21 06:42:54;;;;;;;17.15;11.70;;;1.60;81.10;;;;;;5036853;28;20439;-75
2024/01/21 06:45:20;;;;;;;18.88;10.73;;;1.60;81.30;;;;;;5037084;28;20087;-79
2024/01/21 06:47:45;;;;;;;16.52;11.05;;;1.60;81.30;;;;;;5034266;28;20029;-75
2024/01/21 06:50:11;;;;;;;16.48;11.15;;;1.70;81.40;;;;;;5037064;28;20032;-74
2024/01/21 06:52:36;;;;;;;15.88;11.30;;;1.70;81.60;;;;;;5032049;28;20020;-76
2024/01/21 06:55:03;;;;;;;17.17;11.52;;;1.70;81.80;;;;;;5039891;28;20482;-79
2024/01/21 06:57:29;;;;;;;18.58;11.65;;;1.80;81.80;;;;;;5045273;28;20029;-80
2024/01/21 06:59:54;;;;;;;16.85;11.75;;;1.80;82.00;;;;;;5040898;28;20102;-76
2024/01/21 07:02:20;;;;;;;18.67;11.55;;;1.70;82.50;;;;;;5042347;28;20013;-75
2024/01/21 07:04:45;;;;;;;18.02;11.02;;;1.70;82.60;;;;;;5034922;28;20029;-75
2024/01/21 07:07:11;;;;;;;19.98;12.68;;;1.80;82.50;;;;;;5036087;28;20168;-75
2024/01/21 07:09:41;;;;;;;19.95;12.80;;;1.70;83.00;;;;;;5043607;28;20033;-76
2024/01/21 07:12:07;;;;;;;26.42;16.85;;;1.80;83.40;;;;;;5044757;28;20059;-76
2024/01/21 07:14:34;;;;;;;20.40;13.60;;;1.80;83.60;;;;;;5043126;28;20032;-80
2024/01/21 07:17:01;;;;;;;19.45;12.50;;;1.80;84.20;;;;;;5038326;28;20108;-75
2024/01/21 07:19:27;;;;;;;19.08;13.23;;;1.80;85.00;;;;;;5044734;28;20033;-76
2024/01/21 07:21:53;;;;;;;17.23;12.23;;;1.80;86.10;;;;;;5037726;28;20469;-75
2024/01/21 07:24:18;;;;;;;18.30;12.57;;;1.80;86.90;;;;;;5038345;28;20112;-76
2024/01/21 07:26:44;;;;;;;22.23;13.40;;;1.80;88.10;;;;;;5041207;28;20042;-75
2024/01/21 07:29:09;;;;;;;23.50;14.80;;;1.70;88.50;;;;;;5042572;28;20025;-75
2024/01/21 07:31:35;;;;;;;23.25;14.10;;;1.70;88.80;;;;;;5033208;28;20029;-75
2024/01/21 07:34:01;;;;;;;20.80;13.65;;;1.70;88.90;;;;;;5042103;28;20047;-75
2024/01/21 07:36:26;;;;;;;19.08;13.73;;;1.70;89.40;;;;;;5036941;28;20088;-75
2024/01/21 07:38:52;;;;;;;19.20;13.82;;;1.70;89.80;;;;;;5034065;28;20043;-75
2024/01/21 07:41:17;;;;;;;20.20;13.73;;;1.70;90.20;;;;;;5040810;28;20446;-75
2024/01/21 07:43:43;;;;;;;20.50;14.30;;;1.70;90.50;;;;;;5044371;28;20033;-74
2024/01/21 07:46:09;;;;;;;22.05;14.82;;;1.70;90.70;;;;;;5042038;28;20032;-75
2024/01/21 07:48:35;;;;;;;18.70;13.07;;;1.70;90.80;;;;;;5031378;28;20025;-75
2024/01/21 07:51:00;;;;;;;20.67;13.40;;;1.70;91.00;;;;;;5032961;28;20417;-75
2024/01/21 07:53:26;;;;;;;20.77;13.93;;;1.70;91.20;;;;;;5033286;28;20028;-76
2024/01/21 07:55:53;;;;;;;21.95;13.07;;;1.70;91.40;;;;;;5029645;28;20131;-75
2024/01/21 07:58:19;;;;;;;18.75;13.13;;;1.70;91.60;;;;;;5041851;28;20083;-77
2024/01/21 08:00:45;;;;;;;22.05;13.63;;;1.70;91.60;;;;;;5030923;28;20034;-77
2024/01/21 08:03:12;;;;;;;20.17;13.93;;;1.80;91.60;;;;;;5037195;28;20018;-76
2024/01/21 08:05:37;;;;;;;19.17;13.35;;;1.80;91.50;;;;;;5040324;28;20029;-76
2024/01/21 08:08:04;;;;;;;22.23;13.68;;;1.90;91.50;;;;;;5032966;28;20087;-76
2024/01/21 08:10:29;;;;;;;20.50;13.85;;;2.00;91.30;;;;;;5043559;28;20078;-75
2024/01/21 08:12:55;;;;;;;19.95;14.48;;;2.00;91.00;;;;;;5036033;28;20026;-81
2024/01/21 08:15:21;;;;;;;19.92;13.57;;;2.00;90.90;;;;;;5038336;28;20044;-76
2024/01/21 08:17:46;;;;;;;18.52;13.25;;;2.10;90.80;;;;;;5034818;28;20021;-77
2024/01/21 08:20:12;;;;;;;20.63;12.45;;;2.10;90.60;;;;;;5031819;28;20647;-75
2024/01/21 08:22:38;;;;;;;19.58;13.20;;;2.20;90.40;;;;;;5032265;28;20053;-78
2024/01/21 08:25:04;;;;;;;20.67;12.43;;;2.30;90.20;;;;;;5036442;28;20343;-76
2024/01/21 08:27:31;;;;;;;18.58;12.77;;;2.30;90.00;;;;;;5027640;28;20022;-76
2024/01/21 08:29:56;;;;;;;19.42;13.55;;;2.40;89.90;;;;;;5041205;28;20048;-76
2024/01/21 08:32:22;;;;;;;18.80;13.05;;;2.50;89.70;;;;;;5033732;28;20369;-75
2024/01/21 08:34:48;;;;;;;19.20;13.07;;;2.50;89.40;;;;;;5034634;28;20053;-75
2024/01/21 08:37:13;;;;;;;19.13;12.48;;;2.50;89.40;;;;;;5048642;28;20029;-76
2024/01/21 08:39:39;;;;;;;17.40;12.02;;;2.60;89.40;;;;;;5046368;28;20028;-80
2024/01/21 08:42:05;;;;;;;20.45;12.63;;;2.70;89.20;;;;;;5033877;28;20107;-75
2024/01/21 08:44:31;;;;;;;16.00;12.05;;;2.70;89.10;;;;;;5030922;28;20041;-75
2024/01/21 08:46:57;;;;;;;19.85;12.82;;;2.80;89.20;;;;;;5038896;28;20040;-75
2024/01/21 08:49:23;;;;;;;18.27;11.80;;;2.90;89.10;;;;;;5028447;28;20030;-75
2024/01/21 08:51:48;;;;;;;17.85;11.32;;;2.90;88.80;;;;;;5034614;28;20469;-75
2024/01/21 08:54:14;;;;;;;15.98;11.27;;;3.00;88.50;;;;;;5044396;28;20092;-76
2024/01/21 08:56:40;;;;;;;15.45;10.85;;;3.10;88.10;;;;;;5038168;28;20017;-75
2024/01/21 08:59:05;;;;;;;15.55;11.02;;;3.10;88.00;;;;;;5036213;28;20140;-76
2024/01/21 09:01:31;;;;;;;17.10;12.32;;;3.10;87.80;;;;;;5030739;28;20402;-76
2024/01/21 09:03:57;;;;;;;17.02;12.32;;;3.10;87.60;;;;;;5029486;28;20052;-75
2024/01/21 09:06:23;;;;;;;18.73;12.57;;;3.10;87.60;;;;;;5041176;28;20365;-75
2024/01/21 09:08:53;;;;;;;17.33;10.85;;;3.10;87.50;;;;;;5042034;28;20028;-75
2024/01/21 09:11:20;;;;;;;20.38;12.35;;;3.10;87.50;;;;;;5038303;28;20052;-76
2024/01/21 09:13:46;;;;;;;16.52;11.25;;;3.20;87.50;;;;;;5037944;28;20021;-76
2024/01/21 09:16:16;;;;;;;18.35;11.45;;;3.20;87.40;;;;;;5039832;28;20045;-75
2024/01/21 09:18:42;;;;;;;19.38;11.45;;;3.30;87.40;;;;;;5034543;28;20020;-79
2024/01/21 09:21:07;;;;;;;19.35;12.80;;;3.30;87.40;;;;;;5037518;28;20070;-76
2024/01/21 09:23:33;;;;;;;16.25;11.43;;;3.30;87.30;;;;;;5027098;28;20020;-78
2024/01/21 09:25:59;;;;;;;25.85;17.38;;;3.40;87.30;;;;;;5043438;28;20417;-75
2024/01/21 09:28:24;;;;;;;34.25;22.27;;;3.50;87.20;;;;;;5034451;28;20422;-79
2024/01/21 09:30:50;;;;;;;20.95;14.20;;;3.60;87.00;;;;;;5040338;28;20033;-75
2024/01/21 09:33:17;;;;;;;21.88;14.00;;;3.60;86.90;;;;;;5034001;28;20029;-75
2024/01/21 09:35:43;;;;;;;16.65;12.55;;;3.70;87.00;;;;;;5038438;28;20037;-75
2024/01/21 09:38:10;;;;;;;19.52;12.98;;;3.80;86.90;;;;;;5035947;28;20021;-75
2024/01/21 09:40:36;;;;;;;17.88;10.75;;;3.90;86.70;;;;;;5042149;28;20075;-75
2024/01/21 09:43:02;;;;;;;15.77;10.90;;;3.90;86.80;;;;;;5033903;28;20100;-79
2024/01/21 09:45:31;;;;;;;18.00;10.93;;;4.10;86.70;;;;;;5035903;28;21293;-75
2024/01/21 09:47:57;;;;;;;19.38;14.32;;;4.10;86.50;;;;;;5038452;28;20036;-75
2024/01/21 09:50:25;;;;;;;19.83;14.05;;;4.10;86.60;;;;;;5033204;28;20041;-74
2024/01/21 09:52:51;;;;;;;31.15;20.90;;;4.20;86.50;;;;;;5039960;28;20043;-75
2024/01/21 09:55:17;;;;;;;19.20;12.68;;;4.30;86.60;;;;;;5046364;28;20465;-75
2024/01/21 09:57:44;;;;;;;17.98;12.75;;;4.30;86.70;;;;;;5031618;28;24076;-79
2024/01/21 10:00:12;;;;;;;28.70;21.13;;;4.40;86.60;;;;;;5034253;28;20106;-78
2024/01/21 10:02:39;;;;;;;22.33;15.18;;;4.40;86.70;;;;;;5041437;28;20013;-75
2024/01/21 10:05:06;;;;;;;21.05;15.38;;;4.50;86.50;;;;;;5035181;28;20033;-74
2024/01/21 10:07:32;;;;;;;19.92;15.52;;;4.50;86.60;;;;;;5041500;28;20033;-75
2024/01/21 10:09:58;;;;;;;17.25;11.93;;;4.50;86.70;;;;;;5037050;28;20047;-75
2024/01/21 10:12:24;;;;;;;15.63;11.48;;;4.60;86.60;;;;;;5045671;28;20187;-75
2024/01/21 10:14:50;;;;;;;15.32;10.45;;;4.60;86.40;;;;;;5041164;28;20057;-75
2024/01/21 10:17:22;;;;;;;16.83;11.20;;;4.50;86.70;;;;;;5042453;28;20017;-75
2024/01/21 10:19:49;;;;;;;17.25;10.63;;;4.50;86.80;;;;;;5030025;28;20450;-79
2024/01/21 10:22:16;;;;;;;16.63;10.32;;;4.50;86.90;;;;;;5037122;28;20012;-76
2024/01/21 10:24:49;;;;;;;16.25;10.98;;;4.60;86.80;;;;;;5039909;28;20446;-76
2024/01/21 10:27:18;;;;;;;16.17;10.85;;;4.60;86.70;;;;;;5035806;28;20401;-74
2024/01/21 10:29:45;;;;;;;16.35;10.50;;;4.50;86.90;;;;;;5033444;28;20047;-74
2024/01/21 10:32:12;;;;;;;17.15;11.02;;;4.50;87.00;;;;;;5043348;28;20061;-74
2024/01/21 10:34:40;;;;;;;16.23;10.82;;;4.50;87.00;;;;;;5036566;28;20037;-75
2024/01/21 10:37:07;;;;;;;17.05;10.48;;;4.50;87.20;;;;;;5040574;28;20443;-73
2024/01/21 10:39:36;;;;;;;17.13;10.98;;;4.40;87.40;;;;;;5032989;28;20063;-73
2024/01/21 10:42:02;;;;;;;24.40;15.57;;;4.50;87.50;;;;;;5043672;28;20070;-72
2024/01/21 10:44:28;;;;;;;27.77;20.15;;;4.40;87.50;;;;;;5038171;28;20028;-72
2024/01/21 10:46:55;;;;;;;23.90;16.17;;;4.50;87.60;;;;;;5048072;28;20041;-72
2024/01/21 10:49:21;;;;;;;23.30;16.88;;;4.50;87.70;;;;;;5033596;28;20028;-72
2024/01/21 10:51:48;;;;;;;27.30;18.30;;;4.50;87.80;;;;;;5039772;28;20021;-79
2024/01/21 10:54:14;;;;;;;19.80;13.20;;;4.60;87.70;;;;;;5034752;28;20175;-72
2024/01/21 10:56:41;;;;;;;17.08;11.88;;;4.60;87.60;;;;;;5036411;28;20132;-72
2024/01/21 10:59:08;;;;;;;27.52;19.13;;;4.60;87.60;;;;;;5035591;28;20033;-72
2024/01/21 11:01:36;;;;;;;28.77;19.52;;;4.60;87.80;;;;;;5038676;28;20021;-73
2024/01/21 11:04:06;;;;;;;25.30;17.30;;;4.60;87.80;;;;;;5038261;28;20029;-72
2024/01/21 11:06:33;;;;;;;17.30;13.23;;;4.70;87.70;;;;;;5039856;28;21165;-73
2024/01/21 11:09:03;;;;;;;18.30;12.35;;;4.70;87.80;;;;;;5040410;28;20036;-73
2024/01/21 11:11:30;;;;;;;18.30;12.02;;;4.80;87.70;;;;;;5048584;28;20175;-72
2024/01/21 11:13:56;;;;;;;16.02;11.27;;;4.70;87.60;;;;;;5039863;28;20120;-72
2024/01/21 11:16:31;;;;;;;17.15;12.27;;;4.80;87.60;;;;;;5036952;28;20139;-73
2024/01/21 11:19:09;;;;;;;18.30;11.55;;;4.80;87.70;;;;;;5035194;28;20482;-72
2024/01/21 11:21:40;;;;;;;14.70;10.57;;;4.90;87.60;;;;;;5035350;28;20495;-72
2024/01/21 11:24:09;;;;;;;16.50;10.73;;;4.80;87.60;;;;;;5037821;28;20046;-74
2024/01/21 11:26:37;;;;;;;16.10;10.88;;;4.90;87.60;;;;;;5039860;28;20017;-72
2024/01/21 11:29:23;;;;;;;16.67;10.93;;;5.00;87.60;;;;;;5054560;28;20044;-72
2024/01/21 11:31:53;;;;;;;15.75;10.30;;;5.00;87.60;;;;;;5045497;28;20096;-72
2024/01/21 11:34:21;;;;;;;17.63;11.05;;;5.00;87.40;;;;;;5032591;28;20041;-76
2024/01/21 11:36:47;;;;;;;16.58;10.63;;;5.00;87.60;;;;;;5036387;28;20052;-72
2024/01/21 11:39:13;;;;;;;15.68;10.48;;;5.00;87.60;;;;;;5036375;28;20067;-72
2024/01/21 11:41:47;;;;;;;15.95;10.75;;;4.90;87.80;;;;;;5042444;28;20017;-72
2024/01/21 11:44:25;;;;;;;18.25;10.93;;;5.00;87.80;;;;;;5039792;28;20102;-72
2024/01/21 11:47:03;;;;;;;14.82;10.30;;;5.10;87.70;;;;;;5042567;28;20109;-72
2024/01/21 11:49:30;;;;;;;15.93;9.73;;;5.00;88.00;;;;;;5032541;28;20049;-73
2024/01/21 11:51:57;;;;;;;13.98;10.23;;;5.10;87.90;;;;;;5040420;28;20040;-73
2024/01/21 11:54:23;;;;;;;14.80;10.32;;;5.00;87.90;;;;;;5040659;28;20064;-74
2024/01/21 11:56:50;;;;;;;17.65;11.68;;;5.10;88.30;;;;;;5042119;28;20076;-74
2024/01/21 11:59:16;;;;;;;16.67;11.23;;;5.10;88.20;;;;;;5039256;28;20033;-75
2024/01/21 12:01:42;;;;;;;15.82;10.68;;;5.10;88.20;;;;;;5035107;28;20022;-75
2024/01/21 12:04:09;;;;;;;15.20;10.35;;;5.10;88.00;;;;;;5037295;28;20369;-74
2024/01/21 12:06:44;;;;;;;14.40;10.95;;;5.20;88.00;;;;;;5037497;28;20378;-74
2024/01/21 12:09:11;;;;;;;17.35;11.40;;;5.30;88.10;;;;;;5030128;28;20059;-74
2024/01/21 12:11:38;;;;;;;16.25;10.10;;;5.30;88.00;;;;;;5034365;28;20120;-73
2024/01/21 12:14:09;;;;;;;16.67;10.70;;;5.40;88.00;;;;;;5041001;28;20033;-74
2024/01/21 12:16:35;;;;;;;18.30;10.75;;;5.40;87.90;;;;;;5046695;28;20020;-74
2024/01/21 12:19:02;;;;;;;13.45;9.55;;;5.40;87.80;;;;;;5030818;28;20116;-74
2024/01/21 12:21:29;;;;;;;14.98;10.13;;;5.40;87.80;;;;;;5034024;28;20009;-75
2024/01/21 12:23:57;;;;;;;15.70;10.10;;;5.30;88.00;;;;;;5048577;28;20041;-80
2024/01/21 12:26:24;;;;;;;15.85;10.45;;;5.40;88.30;;;;;;5034310;28;20021;-75
2024/01/21 12:28:57;;;;;;;15.55;10.18;;;5.30;88.30;;;;;;5040789;28;20045;-75
2024/01/21 12:31:34;;;;;;;14.10;10.13;;;5.30;88.60;;;;;;5054011;28;20056;-74
2024/01/21 12:34:02;;;;;;;17.00;10.50;;;5.30;88.60;;;;;;5043387;28;20123;-75